Beijing, Beijing

6:43 AM CST on August 01, 2015 (GMT +0800)
Beijing Capital | | Change Station
CLOSE
Current Station
Airport
Location: Beijing,
Elevation: 115 ft
Nearby Weather Stations

Elev 115 ft 40.07 °N, 116.59 °E | Updated 13 minutes ago

Mist
Mist
75 °F
Feels Like 75 °F
N
2
Wind Variable Wind from Variable

Today
High -- | Low -- °F
--% Chance of Precip.
Yesterday
High -- | Low -- °F
Precip. -- in
5:11 AM 7:28 PM
Full, 100% visible
Pressure 29.74 in
Visibility 1.6 miles
Clouds
Dew Point 75 °F
Humidity 100%
Rainfall 0.00 in
Snow Depth Not available.
UV Not available.
Pollen Not available.
Air Quality Not available.
Flu Activity Not available.
METAR ZBAA 312230Z VRB01MPS 2500 BR NSC 24/24 Q1007 BECMG TL2350 3500

More Conditions Fewer Conditions

Pressure 29.74 in
Visibility 1.6 miles
Clouds
Dew Point 75 °F
Humidity 100%
Rainfall 0.00 in
Snow Depth Not available.
UV Not available.
Pollen Not available.
Air Quality Not available.
Flu Activity Not available.
METAR ZBAA 312230Z VRB01MPS 2500 BR NSC 24/24 Q1007 BECMG TL2350 3500

More Conditions Fewer Conditions

10-Day Weather Forecast

×

Almanac

Astronomy

Aug. 01, 2015 Rise Set
Actual Time
Civil Twilight
Nautical Twilight
Astronomical Twilight
Moon
Length of Visible Light
Length of Day
Tomorrow will be .
, % of the Moon is Illuminated

Today's Extremes

Country Highs Country Lows

Community

WunderPhotos

Upload Photos

1,842,764 photos uploaded!

WunderBlogs® & News

Nearby

Air Quality

  Air Quality AQ Index Pollutant
Not available.

Snow Depth

Station Depth Elevation

Earthquake Activity

City Distance Mag. Time & Date
Minimum magnitude displayed is 2.5.

Coastal Water Temperatures

Place Temperature

Stations

Nearby Weather Stations

Station Location Temp. Windchill Dew Point Humidity Wind Precip. Elev Updated Type